Hlavní strana
METAR-TAF:

METAR-TAF

Letiště :

Letiště Vitebsk

Vitebsk, Bělorusko

zeměpisná šířka: 55-10N, zeměpisná délka: 030-13E, výška: 176 m

Aktuální stav počasí

Zpráva byla vytvořena před 6 hodinami a 56 minutami, v 16:12 UTC
Severní vítr 14 kt s nárazy do 21 kt
Teplota -6°C
Vlhkost vzduchu 73%
Tlak 1030 hPa
Viditelnost 10 km a více
Žádná oblačnost pod 1500 m, nevyskytují se cumulonimby.

METAR: UMII 221612Z 01007G11MPS CAVOK M06/M10 Q1030 R05/810450 NOSIG

Čas: 02:08 (23:08 UTC)

Předpověď počasí

Zpráva byla vytvořena před 9 hodinami a 6 minutami, v 14:02 UTC
Předpověď platná od 22 v 15 UTC do 22 v 24 UTC
Severní vítr 17 kt s nárazy do 27 kt
Viditelnost 10 km a více
Polojasno ve výšce 2000 ft
Dočasný
od 22 v 15 UTC do 22 v 24 UTC
Viditelnost: 2000 m
Polojasno ve výšce 500 ft
Oblačno až skoro zataženo ve výšce 1500 ft, Cumulonimbus.
sněhové přeháňky, zvířený sníh

TAF: UMII 221402Z 2215/2224 01009G14MPS 9999 SCT020 TEMPO 2215/2224 2000 SHSN BLSN SCT005 BKN015CB

Stav a předpovědi počasí z více než 4 000 letišť (zprávy METAR a TAF).

Červené a žluté tečky na mapě představují dostupné meteorologické stanice.

Když kurzor umístíte na tečku, zobrazí se název stanice.

Pak kliknutím zobrazíte stav a předpověď počasí.

Chcete-li změnit mapu, kliknutím na zelené tlačítko se znaménkem +mapu přiblížíte, kliknutím na zelené tlačítko se znaménkem – mapu oddálíte a kliknutím na zelené šipky přejdete na sousední mapy.


METAR-TAF: